WetterOnline ( https://www.wetteronline.ch )

Wetter aktuell Görlitz

Aktuelles Wetter: Görlitz (240m)

6-stündlich | Neueste Meldungen
Ortszeit Temperatur Wetter
Di, 17.09. 20:00 11.2° C bewölkt
Di, 17.09. 14:00 14.0° C bewölkt
Di, 17.09. 8:00 10.7° C wolkig
Di, 17.09. 2:00 10.6° C bedeckt
Mo, 16.09. 20:00 11.3° C Sprühregen
Mo, 16.09. 14:00 15.0° C bedeckt
Mo, 16.09. 8:00 13.6° C bedeckt
Mo, 16.09. 2:00 15.4° C wolkig
Ortszeit Temperatur Wetter
Di, 17.09. 21:30 10.2° C wolkenlos
Di, 17.09. 21:20 10.2° C wolkenlos
Di, 17.09. 21:10 9.9° C wolkenlos
Di, 17.09. 21:00 10.3° C leicht bewölkt
Di, 17.09. 20:50 10.3° C leicht bewölkt
Di, 17.09. 20:40 10.8° C wolkig
Di, 17.09. 20:30 11.2° C bedeckt
Di, 17.09. 20:00 11.2° C bewölkt
Di, 17.09. 19:30 11.3° C bewölkt
Di, 17.09. 19:00 11.7° C bedeckt
Di, 17.09. 18:30 11.5° C bedeckt
Ortszeit Relative Feuchte Sichtweite
Di, 17.09. 20:00 81% 50 km
Di, 17.09. 14:00 54% 60 km
Di, 17.09. 8:00 91% 10 km
Di, 17.09. 2:00 93% 15 km
Mo, 16.09. 20:00 96% 2.3 km
Mo, 16.09. 14:00 67% 35 km
Mo, 16.09. 8:00 77% 40 km
Mo, 16.09. 2:00 54% 65 km
Ortszeit Relative Feuchte Sichtweite
Di, 17.09. 21:30 77% 50 km
Di, 17.09. 21:20 77% -
Di, 17.09. 21:10 83% -
Di, 17.09. 21:00 86% 45 km
Di, 17.09. 20:50 86% -
Di, 17.09. 20:40 81% -
Di, 17.09. 20:30 78% 50 km
Di, 17.09. 20:00 81% 50 km
Di, 17.09. 19:30 80% 65 km
Di, 17.09. 19:00 79% 55 km
Di, 17.09. 18:30 82% 50 km
Ortszeit Niederschlagsmenge Niederschlagsart
Di, 17.09. 20:00 0.5 l/m2 in 12 Std. Regen
Di, 17.09. 14:00 0.1 l/m2 in 6 Std. Regen
Di, 17.09. 8:00 0.7 l/m2 in 12 Std. -
Di, 17.09. 2:00 0.7 l/m2 in 6 Std. Regen
Mo, 16.09. 20:00 3 l/m2 in 12 Std. Regen
Mo, 16.09. 14:00 0.1 l/m2 in 6 Std. Regen
Mo, 16.09. 8:00 0.0 l/m2 in 12 Std. -
Mo, 16.09. 2:00 0.0 l/m2 in 6 Std. -
Ortszeit Niederschlagsmenge Niederschlagsart
Di, 17.09. 21:30 0.0 l/m2 in 1 Std. -
Di, 17.09. 21:20 keine Meldung -
Di, 17.09. 21:10 keine Meldung -
Di, 17.09. 21:00 0.0 l/m2 in 1 Std. -
Di, 17.09. 20:50 keine Meldung -
Di, 17.09. 20:40 keine Meldung -
Di, 17.09. 20:30 0.0 l/m2 in 1 Std. -
Di, 17.09. 20:00 0.0 l/m2 in 1 Std. Regen
Di, 17.09. 19:30 0.0 l/m2 in 1 Std. -
Di, 17.09. 19:00 0.5 l/m2 in 1 Std. Regen
Di, 17.09. 18:30 0.5 l/m2 in 1 Std. Schneeregen
Ortszeit Stärke Spitze Richtung
km/h Bft. km/h Grad Sektor
Di, 17.09. 20:00 19 3 57 270° W
Di, 17.09. 14:00 31 5 48 270° W
Di, 17.09. 8:00 11 2 22 260° W
Di, 17.09. 2:00 9 2 20 290° W
Mo, 16.09. 20:00 7 2 22 330° NW
Mo, 16.09. 14:00 13 3 22 280° W
Mo, 16.09. 8:00 7 2 18 280° W
Mo, 16.09. 2:00 9 2 17 240° SW
Ortszeit Stärke Spitze Richtung
km/h Bft. km/h Grad Sektor
Di, 17.09. 21:30 22 4 36 270° W
Di, 17.09. 21:20 22 4 - 270° W
Di, 17.09. 21:10 18 3 - 260° W
Di, 17.09. 21:00 19 3 37 260° W
Di, 17.09. 20:50 19 3 - 260° W
Di, 17.09. 20:40 14 3 - 270° W
Di, 17.09. 20:30 15 3 37 280° W
Di, 17.09. 20:00 19 3 44 270° W
Di, 17.09. 19:30 22 4 43 270° W
Di, 17.09. 19:00 26 4 48 270° W
Di, 17.09. 18:30 22 4 48 270° W
Ortszeit Untergrenze Bedeckung Gattung
total tief tief mittel hoch
Di, 17.09. 20:00 600 m 7/8 7/8 - - -
Di, 17.09. 14:00 1140 m 7/8 7/8 - - -
Di, 17.09. 8:00 930 m 7/8 1/8 - - -
Di, 17.09. 2:00 300 m 8/8 8/8 - - -
Mo, 16.09. 20:00 90 m 8/8 8/8 - - -
Mo, 16.09. 14:00 810 m 8/8 8/8 - - -
Mo, 16.09. 8:00 540 m 8/8 8/8 - - -
Mo, 16.09. 2:00 7500 m 8/8 0/8 - - -
Ortszeit Bedeckungsgrad in Achtel und Wolkenuntergrenze
Di, 17.09. 21:30 keine Wolken
Di, 17.09. 21:20 keine Wolken
Di, 17.09. 21:10 keine Wolken
Di, 17.09. 21:00 1(780m) 3(1200m) 2(2700m)
Di, 17.09. 20:50 1(780m) 3(1200m) 4(2700m)
Di, 17.09. 20:40 2(930m) 4(1800m) 6(2700m)
Di, 17.09. 20:30 3(780m) 6(1800m) 8(2700m)
Di, 17.09. 20:00 2(600m) 7(1470m) 7(2400m)
Di, 17.09. 19:30 2(930m) 6(1500m) 7(2100m)
Di, 17.09. 19:00 3(1470m) 8(2100m) 8(2700m)
Di, 17.09. 18:30 1(870m) 5(1320m) 8(1500m)
Ortszeit Luftdruck NN (hPa) Tendenz (hPa in 3 Std.)
Di, 17.09. 20:00 1015 + 1,3
Di, 17.09. 14:00 1014 - 1,9
Di, 17.09. 8:00 1017 - 0,3
Di, 17.09. 2:00 1018 - 0,1
Mo, 16.09. 20:00 1018 + 0,3
Mo, 16.09. 14:00 1018 - 1,6
Mo, 16.09. 8:00 1020 + 0,5
Mo, 16.09. 2:00 1019 - 0,2
Ortszeit Luftdruck NN (hPa) Tendenz (hPa in 3 Std.)
Di, 17.09. 21:30 1015 + 1,6
Di, 17.09. 21:20 1015 keine Meldung
Di, 17.09. 21:10 1015 keine Meldung
Di, 17.09. 21:00 1015 + 1,4
Di, 17.09. 20:50 1015 keine Meldung
Di, 17.09. 20:40 1015 keine Meldung
Di, 17.09. 20:30 1015 + 1,3
Di, 17.09. 20:00 1015 + 1,3
Di, 17.09. 19:30 1014 + 0,9
Di, 17.09. 19:00 1014 + 0,3
Di, 17.09. 18:30 1013 - 0,3
Ortszeit Schneehöhe (cm)
Di, 17.09. 20:00 -
Di, 17.09. 14:00 -
Di, 17.09. 8:00 -
Di, 17.09. 2:00 -
Mo, 16.09. 20:00 -
Mo, 16.09. 14:00 -
Mo, 16.09. 8:00 -
Mo, 16.09. 2:00 -
Ortszeit Schneehöhe (cm)
Di, 17.09. 21:30 -
Di, 17.09. 21:20 -
Di, 17.09. 21:10 -
Di, 17.09. 21:00 -
Di, 17.09. 20:50 -
Di, 17.09. 20:40 -
Di, 17.09. 20:30 -
Di, 17.09. 20:00 -
Di, 17.09. 19:30 -
Di, 17.09. 19:00 -
Di, 17.09. 18:30 -
Link zu dieser Seite / Seite empfehlen

Das Wetter in ...